createdAt,value
2022-10-24T00:01:23.087Z,5.13
2022-10-24T00:03:51.229Z,5.13
2022-10-24T00:06:19.844Z,5.13
2022-10-24T00:08:47.846Z,5.90
2022-10-24T00:11:26.166Z,5.38
2022-10-24T00:13:54.499Z,5.28
2022-10-24T00:16:21.826Z,5.22
2022-10-24T00:18:49.341Z,5.47
2022-10-24T00:21:17.268Z,5.22
2022-10-24T00:23:44.774Z,5.75
2022-10-24T00:26:13.036Z,5.20
2022-10-24T00:28:41.161Z,6.85
2022-10-24T00:31:15.369Z,6.28
2022-10-24T00:33:43.656Z,5.43
2022-10-24T00:36:13.234Z,5.40
2022-10-24T00:38:40.595Z,6.38
2022-10-24T00:41:08.310Z,6.57
2022-10-24T00:43:35.597Z,7.05
2022-10-24T00:46:03.960Z,5.60
2022-10-24T00:56:29.894Z,8.18
2022-10-24T00:59:00.024Z,6.88
2022-10-24T01:01:27.480Z,7.82
2022-10-24T01:03:54.830Z,7.32
2022-10-24T01:09:37.116Z,7.68
2022-10-24T01:15:07.285Z,7.28
2022-10-24T01:17:50.874Z,7.88
2022-10-24T01:23:11.761Z,8.98
2022-10-24T01:31:10.694Z,6.88
2022-10-24T01:33:44.496Z,7.28
2022-10-24T01:36:18.650Z,7.75
2022-10-24T01:38:51.244Z,7.65
2022-10-24T01:41:23.199Z,7.80
2022-10-24T01:43:56.939Z,8.27
2022-10-24T01:46:29.210Z,7.63
2022-10-24T01:49:05.616Z,7.88
2022-10-24T01:51:35.599Z,8.25
2022-10-24T01:54:04.496Z,8.98
2022-10-24T01:56:31.806Z,7.65
2022-10-24T02:04:43.918Z,8.20
2022-10-24T02:07:13.893Z,8.75
2022-10-24T02:09:43.803Z,7.25
2022-10-24T02:12:14.914Z,7.00
2022-10-24T02:15:08.491Z,7.68
2022-10-24T02:17:35.804Z,7.03
2022-10-24T02:20:04.185Z,6.47
2022-10-24T02:25:17.370Z,7.20
2022-10-24T02:27:54.912Z,6.60
2022-10-24T02:30:25.069Z,7.63
2022-10-24T02:32:56.597Z,6.95
2022-10-24T02:35:28.605Z,6.93
2022-10-24T02:38:05.078Z,7.32
2022-10-24T02:40:32.656Z,7.10
2022-10-24T02:43:02.278Z,7.18
2022-10-24T02:45:30.977Z,6.88
2022-10-24T02:48:03.882Z,6.75
2022-10-24T02:50:32.679Z,5.82
2022-10-24T02:53:00.134Z,6.20
2022-10-24T02:55:27.532Z,5.65
2022-10-24T02:57:54.929Z,5.22
2022-10-24T03:00:22.796Z,4.97
2022-10-24T03:02:50.120Z,5.20
2022-10-24T03:05:17.509Z,5.15
2022-10-24T03:07:44.803Z,5.00
2022-10-24T03:10:12.208Z,5.65
2022-10-24T03:12:39.985Z,5.07
2022-10-24T03:15:07.871Z,4.65
2022-10-24T03:17:35.409Z,5.47
2022-10-24T03:20:02.833Z,5.20
2022-10-24T03:22:31.089Z,5.07
2022-10-24T03:25:02.064Z,5.68
2022-10-24T03:27:34.225Z,4.78
2022-10-24T03:30:02.211Z,5.22
2022-10-24T03:32:30.672Z,5.63
2022-10-24T03:34:57.984Z,5.35
2022-10-24T03:37:25.417Z,6.05
2022-10-24T03:39:53.105Z,5.15
2022-10-24T03:42:20.498Z,5.55
2022-10-24T03:44:48.554Z,6.00
2022-10-24T03:47:16.104Z,5.80
2022-10-24T03:49:43.640Z,6.30
2022-10-24T03:52:11.089Z,6.03
2022-10-24T03:54:39.824Z,6.43
2022-10-24T03:57:10.414Z,6.05
2022-10-24T03:59:39.005Z,6.82
2022-10-24T04:02:07.248Z,6.10
2022-10-24T04:04:35.554Z,5.82
2022-10-24T04:07:06.223Z,6.43
2022-10-24T04:09:34.262Z,6.40
2022-10-24T04:12:02.861Z,6.80
2022-10-24T04:14:32.638Z,6.10
2022-10-24T04:17:01.472Z,6.45
2022-10-24T04:19:29.086Z,6.13
2022-10-24T04:21:58.709Z,6.07
2022-10-24T04:24:27.525Z,7.93
2022-10-24T04:26:56.463Z,6.63
2022-10-24T04:29:25.310Z,7.15
2022-10-24T04:31:53.645Z,6.93
2022-10-24T04:34:21.720Z,6.70
2022-10-24T04:36:51.041Z,6.50
2022-10-24T04:39:21.271Z,6.63
2022-10-24T04:41:51.355Z,7.75
2022-10-24T04:44:23.130Z,6.72
2022-10-24T04:46:52.983Z,7.53
2022-10-24T04:49:21.590Z,7.55
2022-10-24T04:51:50.821Z,7.18
2022-10-24T04:54:19.973Z,6.55
2022-10-24T04:56:49.071Z,8.18
2022-10-24T04:59:18.692Z,8.40
2022-10-24T05:01:48.765Z,7.75
2022-10-24T05:04:19.358Z,9.05
2022-10-24T05:06:49.669Z,9.43
2022-10-24T05:09:21.330Z,8.60
2022-10-24T05:11:53.577Z,9.43
2022-10-24T05:16:53.932Z,9.98
2022-10-24T05:19:26.146Z,9.23
2022-10-24T05:21:57.990Z,9.45
2022-10-24T05:24:28.751Z,9.90
2022-10-24T05:29:32.686Z,9.35
2022-10-24T05:32:11.364Z,8.02
2022-10-24T05:37:18.714Z,7.88
2022-10-24T05:39:50.522Z,10.60
2022-10-24T05:42:24.754Z,8.57
2022-10-24T05:44:59.111Z,9.55
2022-10-24T05:47:35.882Z,10.07
2022-10-24T05:50:11.267Z,10.52
2022-10-24T05:52:46.230Z,8.93
2022-10-24T05:55:20.660Z,8.93
2022-10-24T05:57:57.451Z,8.23
2022-10-24T06:00:29.240Z,8.20
2022-10-24T06:03:02.282Z,8.90
2022-10-24T06:05:33.594Z,7.97
2022-10-24T06:08:09.923Z,7.85
2022-10-24T06:10:41.416Z,8.10
2022-10-24T06:13:23.155Z,6.82
2022-10-24T06:16:05.455Z,7.63
2022-10-24T06:18:44.010Z,7.13
2022-10-24T06:21:17.809Z,7.55
2022-10-24T06:23:54.692Z,7.30
2022-10-24T06:26:31.967Z,7.68
2022-10-24T06:29:10.597Z,7.80
2022-10-24T06:31:45.760Z,7.07
2022-10-24T06:34:16.383Z,6.85
2022-10-24T06:36:48.152Z,6.50
2022-10-24T06:39:20.912Z,7.05
2022-10-24T06:41:54.668Z,7.65
2022-10-24T06:44:32.777Z,6.22
2022-10-24T06:47:07.145Z,7.45
2022-10-24T06:49:46.511Z,6.43
2022-10-24T06:52:18.114Z,6.70
2022-10-24T06:54:51.793Z,6.43
2022-10-24T06:57:33.786Z,5.90
2022-10-24T07:00:09.262Z,6.03
2022-10-24T07:02:49.869Z,6.20
2022-10-24T07:05:32.874Z,5.90
2022-10-24T07:08:09.923Z,5.97
2022-10-24T07:10:49.393Z,6.55
2022-10-24T07:13:33.740Z,6.32
2022-10-24T07:16:06.962Z,6.38
2022-10-24T07:18:46.815Z,6.00
2022-10-24T07:21:28.852Z,6.22
2022-10-24T07:24:05.192Z,5.68
2022-10-24T07:26:42.512Z,5.75
2022-10-24T07:29:16.490Z,5.75
2022-10-24T07:31:59.973Z,6.28
2022-10-24T07:34:39.166Z,5.22
2022-10-24T07:37:15.715Z,4.97
2022-10-24T07:39:53.190Z,6.53
2022-10-24T07:42:30.265Z,5.28
2022-10-24T07:45:11.441Z,5.75
2022-10-24T07:50:33.847Z,5.70
2022-10-24T07:53:08.713Z,5.00
2022-10-24T07:55:52.213Z,5.38
2022-10-24T07:58:27.876Z,6.13
2022-10-24T08:01:13.411Z,5.80
2022-10-24T08:03:54.237Z,5.25
2022-10-24T08:06:45.018Z,5.28
2022-10-24T08:09:24.023Z,4.47
2022-10-24T08:12:04.880Z,5.03
2022-10-24T08:14:45.356Z,4.10
2022-10-24T08:17:29.281Z,4.53
2022-10-24T08:20:09.995Z,4.15
2022-10-24T08:22:39.593Z,4.07
2022-10-24T08:25:14.517Z,4.85
2022-10-24T08:27:48.755Z,4.43
2022-10-24T08:30:28.650Z,4.55
2022-10-24T08:33:04.973Z,4.50
2022-10-24T08:35:52.049Z,4.18
2022-10-24T08:38:35.883Z,5.50
2022-10-24T08:44:41.168Z,4.40
2022-10-24T08:53:17.220Z,4.50
2022-10-24T08:56:04.479Z,4.55
2022-10-24T08:58:55.845Z,4.50
2022-10-24T09:04:23.573Z,4.38
2022-10-24T09:07:05.657Z,4.07
2022-10-24T09:09:52.010Z,3.28
2022-10-24T09:12:35.003Z,3.60
2022-10-24T09:15:27.834Z,3.88
2022-10-24T09:18:08.122Z,3.78
2022-10-24T09:21:08.435Z,3.17
2022-10-24T09:24:01.691Z,3.65
2022-10-24T09:26:47.278Z,3.63
2022-10-24T09:29:41.631Z,3.38
2022-10-24T09:32:40.999Z,2.88
2022-10-24T09:35:43.979Z,2.75
2022-10-24T09:41:31.867Z,2.83
2022-10-24T09:44:12.829Z,3.53
2022-10-24T09:46:59.819Z,2.50
2022-10-24T09:49:41.608Z,1.70
2022-10-24T09:52:42.187Z,1.55
2022-10-24T09:55:45.590Z,0.98
2022-10-24T09:58:43.893Z,0.73
2022-10-24T10:01:46.648Z,0.60
2022-10-24T10:04:25.837Z,0.77
2022-10-24T10:07:24.704Z,1.10
2022-10-24T10:10:33.933Z,0.93
2022-10-24T10:19:04.656Z,1.27
2022-10-24T10:30:36.341Z,1.52
2022-10-24T10:33:40.166Z,2.20
2022-10-24T10:36:31.400Z,1.95
2022-10-24T10:45:11.290Z,1.88
2022-10-24T10:51:09.679Z,1.23
2022-10-24T10:56:40.730Z,1.40
2022-10-24T11:05:57.693Z,2.57
2022-10-24T11:11:47.332Z,1.80
2022-10-24T11:14:48.853Z,2.08
2022-10-24T11:18:03.719Z,2.10
2022-10-24T11:32:06.623Z,3.03
2022-10-24T11:38:07.442Z,2.25
2022-10-24T11:40:47.706Z,2.10
2022-10-24T11:43:31.390Z,2.03
2022-10-24T11:46:19.944Z,2.55
2022-10-24T11:49:04.618Z,2.65
2022-10-24T11:51:59.464Z,1.70
2022-10-24T11:55:03.426Z,2.30
2022-10-24T11:57:45.739Z,2.20
2022-10-24T12:00:41.251Z,2.30
2022-10-24T12:18:17.533Z,1.73
2022-10-24T12:21:05.858Z,1.77
2022-10-24T12:23:48.558Z,1.75
2022-10-24T12:26:37.924Z,1.52
2022-10-24T12:29:35.518Z,2.25
2022-10-24T12:32:48.631Z,1.52
2022-10-24T12:41:52.553Z,1.33
2022-10-24T12:47:47.003Z,1.52
2022-10-24T12:53:37.969Z,1.55
2022-10-24T12:59:29.166Z,1.27
2022-10-24T13:14:19.124Z,1.45
2022-10-24T13:20:43.056Z,1.98
2022-10-24T13:23:40.999Z,1.50
2022-10-24T13:37:38.490Z,1.52
2022-10-24T13:43:07.712Z,0.95
2022-10-24T13:48:59.285Z,1.40
2022-10-24T13:54:41.490Z,1.20
2022-10-24T13:57:48.981Z,1.70
2022-10-24T14:03:42.449Z,1.20
2022-10-24T14:06:27.369Z,1.65
2022-10-24T14:11:59.980Z,2.00
2022-10-24T14:14:51.707Z,1.90
2022-10-24T14:17:42.668Z,1.10
2022-10-24T14:20:51.437Z,1.20
2022-10-24T14:23:46.578Z,0.77
2022-10-24T14:29:38.381Z,1.38
2022-10-24T14:32:29.487Z,3.03
2022-10-24T14:35:20.362Z,2.05
2022-10-24T14:38:12.966Z,1.00
2022-10-24T14:41:09.765Z,1.20
2022-10-24T14:44:02.713Z,0.73
2022-10-24T14:46:48.529Z,1.17
2022-10-24T14:52:48.672Z,2.33
2022-10-24T14:55:31.197Z,3.20
2022-10-24T14:58:34.796Z,3.38
2022-10-24T15:01:20.471Z,3.50
2022-10-24T15:04:27.317Z,3.83
2022-10-24T15:07:23.416Z,2.58
2022-10-24T15:16:02.519Z,1.23
2022-10-24T15:18:54.811Z,1.40
2022-10-24T15:22:00.034Z,1.30
2022-10-24T15:25:02.239Z,1.33
2022-10-24T15:27:49.526Z,1.08
2022-10-24T15:30:41.875Z,1.33
2022-10-24T15:33:34.237Z,1.30
2022-10-24T15:36:45.280Z,1.98
2022-10-24T15:39:33.477Z,1.55
2022-10-24T15:42:20.115Z,1.20
2022-10-24T15:45:06.536Z,1.50
2022-10-24T15:47:54.510Z,1.35
2022-10-24T15:50:52.503Z,0.98
2022-10-24T15:53:34.265Z,1.75
2022-10-24T15:56:23.586Z,1.83
2022-10-24T15:59:15.022Z,1.65
2022-10-24T16:02:06.095Z,2.00
2022-10-24T16:04:42.725Z,1.95
2022-10-24T16:07:38.141Z,1.90
2022-10-24T16:10:31.274Z,1.90
2022-10-24T16:13:21.325Z,1.77
2022-10-24T16:16:06.802Z,1.58
2022-10-24T16:18:44.672Z,1.80
2022-10-24T16:21:27.966Z,2.20
2022-10-24T16:24:07.644Z,2.92
2022-10-24T16:26:49.886Z,2.53
2022-10-24T16:29:34.813Z,3.30
2022-10-24T16:32:26.350Z,3.08
2022-10-24T16:35:14.341Z,2.63
2022-10-24T16:37:55.256Z,2.80
2022-10-24T16:40:42.000Z,2.30
2022-10-24T16:43:32.367Z,2.70
2022-10-24T16:46:24.299Z,2.15
2022-10-24T16:51:58.190Z,2.38
2022-10-24T16:54:42.954Z,2.00
2022-10-24T17:00:11.910Z,1.88
2022-10-24T17:03:15.231Z,2.42
2022-10-24T17:06:01.863Z,2.60
2022-10-24T17:08:50.743Z,1.85
2022-10-24T17:11:44.786Z,1.92
2022-10-24T17:14:30.244Z,1.88
2022-10-24T17:17:19.738Z,1.98
2022-10-24T17:20:22.303Z,2.10
2022-10-24T17:23:06.656Z,1.92
2022-10-24T17:25:52.904Z,2.22
2022-10-24T17:28:38.337Z,1.83
2022-10-24T17:31:29.052Z,2.10
2022-10-24T17:34:21.488Z,2.13
2022-10-24T17:40:30.812Z,2.65
2022-10-24T17:43:28.787Z,1.85
2022-10-24T17:46:13.382Z,2.30
2022-10-24T17:49:09.333Z,2.83
2022-10-24T17:51:48.519Z,2.40
2022-10-24T17:54:29.510Z,2.50
2022-10-24T17:57:08.163Z,2.17
2022-10-24T17:59:57.776Z,2.10
2022-10-24T18:02:47.643Z,2.63
2022-10-24T18:05:29.707Z,2.40
2022-10-24T18:08:04.122Z,2.20
2022-10-24T18:10:47.924Z,2.45
2022-10-24T18:13:34.234Z,2.70
2022-10-24T18:16:27.343Z,3.50
2022-10-24T18:19:16.222Z,2.05
2022-10-24T18:21:57.291Z,2.22
2022-10-24T18:24:43.643Z,1.98
2022-10-24T18:27:24.663Z,2.45
2022-10-24T18:30:27.917Z,2.35
2022-10-24T18:33:08.085Z,2.33
2022-10-24T18:35:57.738Z,1.83
2022-10-24T18:38:27.630Z,2.20
2022-10-24T18:41:11.773Z,2.15
2022-10-24T18:43:55.335Z,1.95
2022-10-24T18:46:43.785Z,1.95
2022-10-24T18:49:29.990Z,2.15
2022-10-24T18:55:20.752Z,2.22
2022-10-24T18:58:08.546Z,2.92
2022-10-24T19:00:50.564Z,2.25
2022-10-24T19:09:15.530Z,2.63
2022-10-24T19:12:05.988Z,2.75
2022-10-24T19:14:57.856Z,3.10
2022-10-24T19:17:46.286Z,2.40
2022-10-24T19:20:29.363Z,2.28
2022-10-24T19:23:11.467Z,2.38
2022-10-24T19:25:48.707Z,2.25
2022-10-24T19:28:28.088Z,2.65
2022-10-24T19:31:25.819Z,2.28
2022-10-24T19:34:02.076Z,2.30
2022-10-24T19:36:42.477Z,2.28
2022-10-24T19:39:24.889Z,2.85
2022-10-24T19:42:02.050Z,3.17
2022-10-24T19:47:34.438Z,2.42
2022-10-24T19:50:29.139Z,2.53
2022-10-24T19:53:04.268Z,2.28
2022-10-24T19:55:39.810Z,2.60
2022-10-24T19:58:16.688Z,2.85
2022-10-24T20:00:53.971Z,2.28
2022-10-24T20:03:31.715Z,2.30
2022-10-24T20:06:08.799Z,2.53
2022-10-24T20:08:41.496Z,2.88
2022-10-24T20:11:14.422Z,1.90
2022-10-24T20:13:50.854Z,2.72
2022-10-24T20:16:30.203Z,2.30
2022-10-24T20:19:04.175Z,2.75
2022-10-24T20:21:39.277Z,1.77
2022-10-24T20:24:12.276Z,3.10
2022-10-24T20:26:49.919Z,2.33
2022-10-24T20:29:25.138Z,2.72
2022-10-24T20:32:05.380Z,2.38
2022-10-24T20:34:42.460Z,1.92
2022-10-24T20:37:18.088Z,2.55
2022-10-24T20:39:53.597Z,2.70
2022-10-24T20:42:28.619Z,2.88
2022-10-24T20:44:59.669Z,2.80
2022-10-24T20:47:38.489Z,3.20
2022-10-24T20:50:09.907Z,2.67
2022-10-24T20:52:41.864Z,2.10
2022-10-24T20:55:25.150Z,2.70
2022-10-24T20:58:05.754Z,2.40
2022-10-24T21:00:38.488Z,2.53
2022-10-24T21:03:17.360Z,2.88
2022-10-24T21:05:51.862Z,2.55
2022-10-24T21:08:25.135Z,2.67
2022-10-24T21:11:00.678Z,3.30
2022-10-24T21:13:31.719Z,2.67
2022-10-24T21:16:04.330Z,2.03
2022-10-24T21:18:33.908Z,2.67
2022-10-24T21:21:08.212Z,2.88
2022-10-24T21:23:38.062Z,2.75
2022-10-24T21:26:09.142Z,2.58
2022-10-24T21:28:42.698Z,2.13
2022-10-24T21:31:17.390Z,2.30
2022-10-24T21:33:49.391Z,2.38
2022-10-24T21:36:25.112Z,2.25
2022-10-24T21:39:00.921Z,2.58
2022-10-24T21:41:31.719Z,2.80
2022-10-24T21:44:01.293Z,1.98
2022-10-24T21:46:33.935Z,1.95
2022-10-24T21:49:08.008Z,2.55
2022-10-24T21:51:41.033Z,2.80
2022-10-24T21:54:19.202Z,2.53
2022-10-24T21:56:47.814Z,2.72
2022-10-24T21:59:21.009Z,2.67
2022-10-24T22:01:52.825Z,2.83
2022-10-24T22:04:21.450Z,3.20
2022-10-24T22:06:51.036Z,3.22
2022-10-24T22:09:21.258Z,3.05
2022-10-24T22:11:49.785Z,4.25
2022-10-24T22:14:19.655Z,4.55
2022-10-24T22:16:50.595Z,3.75
2022-10-24T22:19:18.630Z,3.33
2022-10-24T22:21:49.880Z,3.90
2022-10-24T22:24:20.318Z,3.22
2022-10-24T22:26:49.931Z,2.78
2022-10-24T22:29:21.799Z,3.70
2022-10-24T22:31:51.073Z,3.08
2022-10-24T22:34:22.385Z,3.33
2022-10-24T22:37:05.957Z,2.90
2022-10-24T22:39:34.601Z,2.35
2022-10-24T22:42:02.716Z,3.00
2022-10-24T22:44:30.249Z,3.03
2022-10-24T22:52:50.707Z,2.92
2022-10-24T22:55:29.902Z,2.97
2022-10-24T22:57:57.880Z,2.80
2022-10-24T23:00:25.937Z,3.03
2022-10-24T23:03:03.542Z,3.20
2022-10-24T23:05:42.515Z,3.17
2022-10-24T23:08:23.838Z,2.65
2022-10-24T23:10:51.695Z,3.47
2022-10-24T23:13:19.434Z,2.85
2022-10-24T23:15:46.981Z,4.10
2022-10-24T23:18:17.088Z,2.78
2022-10-24T23:20:50.257Z,2.63
2022-10-24T23:23:28.671Z,2.70
2022-10-24T23:26:07.172Z,3.10
2022-10-24T23:28:44.598Z,2.60
2022-10-24T23:31:12.288Z,3.28
2022-10-24T23:33:40.769Z,3.38
2022-10-24T23:36:19.886Z,2.80
2022-10-24T23:38:47.955Z,3.17
2022-10-24T23:41:15.766Z,3.15
2022-10-24T23:43:43.318Z,3.13
2022-10-24T23:46:25.693Z,2.75
2022-10-24T23:52:15.272Z,3.08
2022-10-24T23:54:42.954Z,2.80
2022-10-24T23:57:16.226Z,3.08
2022-10-24T23:59:44.733Z,2.13
